createdAt,value
2019-06-18T00:00:14.053Z,0
2019-06-18T00:01:13.969Z,0
2019-06-18T00:02:14.045Z,0
2019-06-18T00:03:13.986Z,0
2019-06-18T00:04:14.062Z,0
2019-06-18T00:05:14.045Z,0
2019-06-18T00:06:14.046Z,0
2019-06-18T00:07:13.981Z,0
2019-06-18T00:08:14.046Z,0
2019-06-18T00:09:13.990Z,0
2019-06-18T00:10:14.052Z,0
2019-06-18T00:11:13.990Z,0
2019-06-18T00:12:14.062Z,0
2019-06-18T00:13:14.058Z,0
2019-06-18T00:14:13.996Z,0
2019-06-18T00:15:13.995Z,0
2019-06-18T00:16:14.070Z,0
2019-06-18T00:17:13.995Z,0
2019-06-18T00:18:13.990Z,0
2019-06-18T00:19:13.993Z,0
2019-06-18T00:20:14.052Z,0
2019-06-18T00:21:14.059Z,0
2019-06-18T00:22:14.013Z,0
2019-06-18T00:23:14.060Z,0
2019-06-18T00:24:14.026Z,0
2019-06-18T00:25:14.001Z,0
2019-06-18T00:26:13.987Z,0
2019-06-18T00:27:14.019Z,0
2019-06-18T00:28:13.988Z,0
2019-06-18T00:29:14.005Z,0
2019-06-18T00:30:14.081Z,0
2019-06-18T00:31:13.995Z,0
2019-06-18T00:32:14.056Z,0
2019-06-18T00:33:14.077Z,0
2019-06-18T00:34:14.064Z,0
2019-06-18T00:35:14.085Z,0
2019-06-18T00:36:13.978Z,0
2019-06-18T00:37:14.038Z,0
2019-06-18T00:38:14.059Z,0
2019-06-18T00:39:14.066Z,0
2019-06-18T00:40:22.990Z,0
2019-06-18T00:41:13.971Z,0
2019-06-18T00:42:16.748Z,0
2019-06-18T00:43:14.039Z,0
2019-06-18T00:44:14.013Z,0
2019-06-18T00:45:14.057Z,0
2019-06-18T00:46:13.992Z,0
2019-06-18T00:47:16.641Z,0
2019-06-18T00:48:13.997Z,0
2019-06-18T00:49:14.062Z,0
2019-06-18T00:50:16.522Z,0
2019-06-18T00:51:16.698Z,0
2019-06-18T00:52:14.069Z,0
2019-06-18T00:53:14.068Z,0
2019-06-18T00:54:14.005Z,0
2019-06-18T00:55:14.067Z,0
2019-06-18T00:56:14.027Z,0
2019-06-18T00:57:14.085Z,0
2019-06-18T00:58:14.061Z,0
2019-06-18T00:59:16.442Z,0
2019-06-18T01:00:14.104Z,0
2019-06-18T01:01:16.787Z,0
2019-06-18T01:02:13.985Z,0
2019-06-18T01:03:14.089Z,0
2019-06-18T01:04:14.033Z,0
2019-06-18T01:05:14.015Z,0
2019-06-18T01:06:14.098Z,0
2019-06-18T01:07:14.035Z,0
2019-06-18T01:08:13.993Z,0
2019-06-18T01:09:16.450Z,0
2019-06-18T01:10:16.711Z,0
2019-06-18T01:11:14.074Z,0
2019-06-18T01:12:14.012Z,0
2019-06-18T01:13:16.631Z,0
2019-06-18T01:14:14.006Z,0
2019-06-18T01:15:14.075Z,0
2019-06-18T01:16:21.738Z,0
2019-06-18T01:17:16.744Z,0
2019-06-18T01:18:14.045Z,0
2019-06-18T01:19:14.095Z,0
2019-06-18T01:20:14.141Z,0
2019-06-18T01:21:14.100Z,0
2019-06-18T01:22:14.118Z,0
2019-06-18T01:23:14.058Z,0
2019-06-18T01:24:14.144Z,0
2019-06-18T01:25:14.110Z,0
2019-06-18T01:26:14.289Z,0
2019-06-18T01:27:14.106Z,0
2019-06-18T01:28:14.125Z,0
2019-06-18T01:29:14.048Z,0
2019-06-18T01:30:14.039Z,0
2019-06-18T01:31:14.048Z,0
2019-06-18T01:32:14.110Z,0
2019-06-18T01:33:14.128Z,0
2019-06-18T01:34:14.040Z,0
2019-06-18T01:35:14.038Z,0
2019-06-18T01:36:14.042Z,0
2019-06-18T01:37:14.121Z,0
2019-06-18T01:38:14.105Z,0
2019-06-18T01:39:14.113Z,0
2019-06-18T01:40:14.103Z,0
2019-06-18T01:41:14.042Z,0
2019-06-18T01:42:14.122Z,0
2019-06-18T01:43:14.043Z,0
2019-06-18T01:44:14.116Z,0
2019-06-18T01:45:14.065Z,0
2019-06-18T01:46:14.097Z,0
2019-06-18T01:47:14.056Z,0
2019-06-18T01:48:14.102Z,0
2019-06-18T01:49:14.113Z,0
2019-06-18T01:50:14.114Z,0
2019-06-18T01:51:14.052Z,0
2019-06-18T01:52:14.017Z,0
2019-06-18T01:53:14.117Z,0
2019-06-18T01:54:14.010Z,0
2019-06-18T01:55:14.052Z,0
2019-06-18T01:56:14.126Z,0
2019-06-18T01:57:14.789Z,0
2019-06-18T01:58:14.133Z,0
2019-06-18T01:59:14.160Z,0
2019-06-18T02:00:14.094Z,0
2019-06-18T02:01:14.134Z,0
2019-06-18T02:02:14.129Z,0
2019-06-18T02:03:14.065Z,0
2019-06-18T02:04:14.131Z,0
2019-06-18T02:05:14.086Z,0
2019-06-18T02:06:14.199Z,0
2019-06-18T02:07:14.085Z,0
2019-06-18T02:08:14.142Z,0
2019-06-18T02:09:14.067Z,0
2019-06-18T02:10:14.097Z,0
2019-06-18T02:11:14.066Z,0
2019-06-18T02:12:14.064Z,0
2019-06-18T02:13:14.072Z,0
2019-06-18T02:14:14.145Z,0
2019-06-18T02:15:14.143Z,0
2019-06-18T02:16:13.996Z,0
2019-06-18T02:17:14.034Z,0
2019-06-18T02:18:14.082Z,0
2019-06-18T02:19:14.006Z,0
2019-06-18T02:20:14.042Z,0
2019-06-18T02:21:14.103Z,0
2019-06-18T02:22:14.091Z,0
2019-06-18T02:23:14.029Z,0
2019-06-18T02:24:13.997Z,0
2019-06-18T02:25:14.003Z,0
2019-06-18T02:26:14.212Z,0
2019-06-18T02:27:14.100Z,0
2019-06-18T02:28:14.212Z,0
2019-06-18T02:29:14.103Z,0
2019-06-18T02:30:14.118Z,0
2019-06-18T02:31:14.349Z,0
2019-06-18T02:32:14.708Z,0
2019-06-18T02:33:14.771Z,0
2019-06-18T02:34:14.070Z,0
2019-06-18T02:35:14.053Z,0
2019-06-18T02:36:14.082Z,0
2019-06-18T02:37:14.157Z,0
2019-06-18T02:38:14.089Z,0
2019-06-18T02:39:14.081Z,0
2019-06-18T02:40:14.165Z,0
2019-06-18T02:41:14.145Z,0
2019-06-18T02:42:14.081Z,0
2019-06-18T02:43:14.148Z,0
2019-06-18T02:44:14.087Z,0
2019-06-18T02:45:14.152Z,0
2019-06-18T02:46:14.163Z,0
2019-06-18T02:47:16.069Z,0
2019-06-18T02:48:14.172Z,0
2019-06-18T02:49:14.173Z,0
2019-06-18T02:50:14.174Z,0
2019-06-18T02:51:14.123Z,0
2019-06-18T02:52:14.096Z,0
2019-06-18T02:53:14.170Z,0
2019-06-18T02:54:14.174Z,0
2019-06-18T02:55:14.239Z,0
2019-06-18T02:56:14.168Z,0
2019-06-18T02:57:14.171Z,0
2019-06-18T02:58:14.164Z,0
2019-06-18T02:59:14.113Z,0
2019-06-18T03:00:14.179Z,0
2019-06-18T03:01:14.181Z,0
2019-06-18T03:02:14.177Z,0
2019-06-18T03:03:14.191Z,0
2019-06-18T03:04:14.110Z,0
2019-06-18T03:05:14.154Z,0
2019-06-18T03:06:14.102Z,0
2019-06-18T03:07:14.167Z,0
2019-06-18T03:08:14.100Z,0
2019-06-18T03:09:14.114Z,0
2019-06-18T03:10:14.195Z,0
2019-06-18T03:11:14.107Z,0
2019-06-18T03:12:14.106Z,0
2019-06-18T03:13:14.106Z,0
2019-06-18T03:14:14.170Z,0
2019-06-18T03:15:14.179Z,0
2019-06-18T03:16:14.164Z,0
2019-06-18T03:17:28.167Z,0
2019-06-18T03:18:14.086Z,0
2019-06-18T03:19:14.173Z,0
2019-06-18T03:20:14.146Z,0
2019-06-18T03:21:16.127Z,0
2019-06-18T03:22:14.165Z,0
2019-06-18T03:23:14.105Z,0
2019-06-18T03:24:14.083Z,0
2019-06-18T03:25:14.062Z,0
2019-06-18T03:26:14.191Z,0
2019-06-18T03:27:14.194Z,0
2019-06-18T03:28:14.198Z,0
2019-06-18T03:29:14.218Z,0
2019-06-18T03:30:15.248Z,0
2019-06-18T03:31:15.419Z,0
2019-06-18T03:32:14.797Z,0
2019-06-18T03:33:15.428Z,0
2019-06-18T03:34:15.456Z,0
2019-06-18T03:35:14.206Z,0
2019-06-18T03:36:14.202Z,0
2019-06-18T03:37:14.196Z,0
2019-06-18T03:38:14.165Z,0
2019-06-18T03:39:14.199Z,14
2019-06-18T03:40:14.201Z,15
2019-06-18T03:41:14.138Z,15
2019-06-18T03:42:14.134Z,16
2019-06-18T03:43:14.132Z,17
2019-06-18T03:44:14.209Z,17
2019-06-18T03:45:14.135Z,17
2019-06-18T03:46:14.094Z,16
2019-06-18T03:47:14.206Z,18
2019-06-18T03:48:14.149Z,19
2019-06-18T03:49:14.220Z,19
2019-06-18T03:50:14.157Z,20
2019-06-18T03:51:14.152Z,21
2019-06-18T03:52:14.215Z,21
2019-06-18T03:53:14.210Z,21
2019-06-18T03:54:14.141Z,22
2019-06-18T03:55:14.216Z,23
2019-06-18T03:56:14.223Z,23
2019-06-18T03:57:14.199Z,23
2019-06-18T03:58:14.139Z,21
2019-06-18T03:59:14.205Z,24
2019-06-18T04:00:14.135Z,23
2019-06-18T04:01:14.136Z,23
2019-06-18T04:02:14.128Z,24
2019-06-18T04:03:14.130Z,23
2019-06-18T04:04:14.207Z,23
2019-06-18T04:05:14.195Z,21
2019-06-18T04:06:14.217Z,24
2019-06-18T04:07:14.220Z,25
2019-06-18T04:08:14.227Z,25
2019-06-18T04:09:14.153Z,25
2019-06-18T04:10:14.225Z,25
2019-06-18T04:11:14.224Z,25
2019-06-18T04:12:14.230Z,26
2019-06-18T04:13:14.158Z,27
2019-06-18T04:14:14.226Z,28
2019-06-18T04:15:14.225Z,29
2019-06-18T04:16:14.165Z,29
2019-06-18T04:17:14.130Z,33
2019-06-18T04:18:14.217Z,34
2019-06-18T04:19:14.162Z,35
2019-06-18T04:20:14.134Z,34
2019-06-18T04:21:14.148Z,34
2019-06-18T04:22:14.230Z,34
2019-06-18T04:23:14.221Z,30
2019-06-18T04:24:14.147Z,34
2019-06-18T04:25:14.239Z,34
2019-06-18T04:26:14.226Z,35
2019-06-18T04:27:14.226Z,35
2019-06-18T04:28:14.249Z,36
2019-06-18T04:29:14.188Z,38
2019-06-18T04:30:14.318Z,38
2019-06-18T04:31:14.256Z,40
2019-06-18T04:32:14.179Z,42
2019-06-18T04:33:14.258Z,43
2019-06-18T04:34:14.206Z,45
2019-06-18T04:35:14.271Z,45
2019-06-18T04:36:14.179Z,49
2019-06-18T04:37:14.252Z,51
2019-06-18T04:38:14.251Z,52
2019-06-18T04:39:14.278Z,54
2019-06-18T04:40:14.180Z,56
2019-06-18T04:41:14.256Z,57
2019-06-18T04:42:14.248Z,59
2019-06-18T04:43:14.183Z,62
2019-06-18T04:44:14.251Z,66
2019-06-18T04:45:14.190Z,69
2019-06-18T04:46:14.250Z,70
2019-06-18T04:47:16.607Z,75
2019-06-18T04:48:23.740Z,77
2019-06-18T04:49:14.242Z,80
2019-06-18T04:50:14.241Z,82
2019-06-18T04:51:14.243Z,86
2019-06-18T04:52:14.254Z,87
2019-06-18T04:53:14.169Z,92
2019-06-18T04:54:14.168Z,96
2019-06-18T04:55:14.177Z,98
2019-06-18T04:56:14.251Z,99
2019-06-18T04:57:14.266Z,103
2019-06-18T04:58:14.267Z,100
2019-06-18T04:59:14.194Z,107
2019-06-18T05:00:14.173Z,109
2019-06-18T05:01:14.208Z,111
2019-06-18T05:02:14.193Z,114
2019-06-18T05:03:14.205Z,116
2019-06-18T05:04:14.269Z,118
2019-06-18T05:05:14.202Z,115
2019-06-18T05:06:14.212Z,120
2019-06-18T05:07:14.254Z,120
2019-06-18T05:08:14.278Z,120
2019-06-18T05:09:14.254Z,120
2019-06-18T05:10:14.192Z,119
2019-06-18T05:11:14.183Z,112
2019-06-18T05:12:14.192Z,113
2019-06-18T05:13:14.260Z,113
2019-06-18T05:14:14.263Z,111
2019-06-18T05:15:14.190Z,110
2019-06-18T05:16:14.197Z,105
2019-06-18T05:17:14.209Z,106
2019-06-18T05:18:14.283Z,111
2019-06-18T05:19:14.229Z,112
2019-06-18T05:20:14.288Z,113
2019-06-18T05:21:14.206Z,115
2019-06-18T05:22:14.193Z,116
2019-06-18T05:23:14.284Z,112
2019-06-18T05:24:14.289Z,118
2019-06-18T05:25:14.219Z,119
2019-06-18T05:26:14.286Z,121
2019-06-18T05:27:14.174Z,123
2019-06-18T05:28:14.172Z,125
2019-06-18T05:29:14.617Z,126
2019-06-18T05:30:14.238Z,124
2019-06-18T05:31:14.268Z,125
2019-06-18T05:32:14.158Z,125
2019-06-18T05:33:14.277Z,128
2019-06-18T05:34:14.183Z,129
2019-06-18T05:35:14.218Z,128
2019-06-18T05:36:14.175Z,127
2019-06-18T05:37:14.218Z,125
2019-06-18T05:38:14.133Z,126
2019-06-18T05:39:14.221Z,126
2019-06-18T05:40:14.206Z,126
2019-06-18T05:41:14.219Z,128
2019-06-18T05:42:14.211Z,129
2019-06-18T05:43:14.160Z,128
2019-06-18T05:44:14.145Z,132
2019-06-18T05:45:14.137Z,132
2019-06-18T05:46:14.176Z,133
2019-06-18T05:47:14.216Z,134
2019-06-18T05:48:14.198Z,104
2019-06-18T05:49:14.220Z,141
2019-06-18T05:50:14.231Z,144
2019-06-18T05:51:14.232Z,146
2019-06-18T05:52:14.292Z,150
2019-06-18T05:53:14.225Z,149
2019-06-18T05:54:14.294Z,144
2019-06-18T05:55:14.296Z,142
2019-06-18T05:56:14.221Z,142
2019-06-18T05:57:14.271Z,141
2019-06-18T05:58:14.220Z,129
2019-06-18T05:59:14.297Z,125
2019-06-18T06:00:14.221Z,116
2019-06-18T06:01:14.299Z,127
2019-06-18T06:02:14.221Z,128
2019-06-18T06:03:14.189Z,135
2019-06-18T06:04:14.209Z,137
2019-06-18T06:05:14.225Z,137
2019-06-18T06:06:14.301Z,109
2019-06-18T06:07:16.085Z,123
2019-06-18T06:08:14.314Z,128
2019-06-18T06:09:14.250Z,131
2019-06-18T06:10:14.313Z,139
2019-06-18T06:11:14.322Z,137
2019-06-18T06:12:14.278Z,149
2019-06-18T06:13:14.318Z,152
2019-06-18T06:14:14.251Z,155
2019-06-18T06:15:14.320Z,160
2019-06-18T06:16:14.255Z,162
2019-06-18T06:17:14.325Z,163
2019-06-18T06:18:14.258Z,164
2019-06-18T06:19:17.821Z,166
2019-06-18T06:20:14.257Z,173
2019-06-18T06:21:14.322Z,176
2019-06-18T06:22:14.344Z,152
2019-06-18T06:23:14.331Z,163
2019-06-18T06:24:14.333Z,166
2019-06-18T06:25:14.387Z,144
2019-06-18T06:26:15.374Z,174
2019-06-18T06:27:14.261Z,168
2019-06-18T06:28:14.276Z,167
2019-06-18T06:29:14.914Z,164
2019-06-18T06:30:14.259Z,164
2019-06-18T06:31:14.263Z,162
2019-06-18T06:32:14.274Z,165
2019-06-18T06:33:14.266Z,172
2019-06-18T06:34:14.263Z,163
2019-06-18T06:35:14.426Z,208
2019-06-18T06:36:14.348Z,225
2019-06-18T06:37:14.384Z,273
2019-06-18T06:38:14.355Z,287
2019-06-18T06:39:14.336Z,280
2019-06-18T06:40:14.352Z,273
2019-06-18T06:41:14.276Z,231
2019-06-18T06:42:14.350Z,235
2019-06-18T06:43:14.273Z,175
2019-06-18T06:44:14.300Z,248
2019-06-18T06:45:14.342Z,310
2019-06-18T06:46:14.277Z,320
2019-06-18T06:47:15.066Z,373
2019-06-18T06:48:14.367Z,385
2019-06-18T06:49:29.637Z,368
2019-06-18T06:50:14.335Z,360
2019-06-18T06:51:14.351Z,366
2019-06-18T06:52:14.256Z,331
2019-06-18T06:53:14.254Z,313
2019-06-18T06:54:15.433Z,410
2019-06-18T06:55:14.264Z,489
2019-06-18T06:56:14.251Z,305
2019-06-18T06:57:14.338Z,171
2019-06-18T06:58:23.067Z,185
2019-06-18T06:59:14.347Z,190
2019-06-18T07:00:14.285Z,203
2019-06-18T07:01:14.285Z,214
2019-06-18T07:02:14.343Z,227
2019-06-18T07:03:14.296Z,243
2019-06-18T07:04:14.283Z,251
2019-06-18T07:05:14.311Z,264
2019-06-18T07:06:14.214Z,279
2019-06-18T07:07:14.347Z,289
2019-06-18T07:08:14.313Z,289
2019-06-18T07:09:14.233Z,301
2019-06-18T07:10:14.252Z,273
2019-06-18T07:11:14.271Z,272
2019-06-18T07:12:14.342Z,255
2019-06-18T07:13:14.350Z,241
2019-06-18T07:14:14.266Z,243
2019-06-18T07:15:14.336Z,248
2019-06-18T07:16:14.319Z,251
2019-06-18T07:17:14.284Z,264
2019-06-18T07:18:14.270Z,266
2019-06-18T07:19:14.294Z,260
2019-06-18T07:20:14.282Z,246
2019-06-18T07:21:14.368Z,238
2019-06-18T07:22:14.287Z,241
2019-06-18T07:23:14.366Z,256
2019-06-18T07:24:14.362Z,276
2019-06-18T07:25:14.364Z,306
2019-06-18T07:26:14.286Z,305
2019-06-18T07:27:14.305Z,310
2019-06-18T07:28:16.955Z,311
2019-06-18T07:29:14.626Z,306
2019-06-18T07:30:14.301Z,299
2019-06-18T07:31:14.251Z,356
2019-06-18T07:32:14.288Z,319
2019-06-18T07:33:14.244Z,293
2019-06-18T07:34:14.343Z,291
2019-06-18T07:35:14.364Z,286
2019-06-18T07:36:14.279Z,273
2019-06-18T07:37:14.378Z,280
2019-06-18T07:38:14.314Z,288
2019-06-18T07:39:14.381Z,289
2019-06-18T07:40:14.320Z,279
2019-06-18T07:41:14.315Z,278
2019-06-18T07:42:14.386Z,281
2019-06-18T07:43:14.346Z,284
2019-06-18T07:44:14.320Z,293
2019-06-18T07:45:14.322Z,301
2019-06-18T07:46:14.324Z,311
2019-06-18T07:47:14.273Z,307
2019-06-18T07:48:14.306Z,311
2019-06-18T07:49:14.381Z,309
2019-06-18T07:50:18.145Z,297
2019-06-18T07:51:14.275Z,281
2019-06-18T07:52:14.383Z,262
2019-06-18T07:53:14.379Z,241
2019-06-18T07:54:14.401Z,224
2019-06-18T07:55:14.391Z,208
2019-06-18T07:56:14.385Z,204
2019-06-18T07:57:14.387Z,202
2019-06-18T07:58:14.405Z,209
2019-06-18T07:59:14.386Z,218
2019-06-18T08:00:14.387Z,219
2019-06-18T08:01:14.390Z,219
2019-06-18T08:02:14.320Z,223
2019-06-18T08:03:14.301Z,228
2019-06-18T08:04:14.316Z,236
2019-06-18T08:05:14.319Z,249
2019-06-18T08:06:14.317Z,236
2019-06-18T08:07:14.969Z,232
2019-06-18T08:08:14.247Z,224
2019-06-18T08:09:14.423Z,226
2019-06-18T08:10:14.265Z,212
2019-06-18T08:11:14.347Z,211
2019-06-18T08:12:14.290Z,202
2019-06-18T08:13:14.345Z,192
2019-06-18T08:14:14.320Z,180
2019-06-18T08:15:14.246Z,177
2019-06-18T08:16:14.311Z,180
2019-06-18T08:17:14.237Z,202
2019-06-18T08:18:14.390Z,404
2019-06-18T08:19:14.361Z,429
2019-06-18T08:20:30.698Z,333
2019-06-18T08:21:14.311Z,244
2019-06-18T08:22:17.841Z,242
2019-06-18T08:23:14.343Z,237
2019-06-18T08:24:14.428Z,238
2019-06-18T08:25:14.299Z,261
2019-06-18T08:26:14.331Z,346
2019-06-18T08:27:14.353Z,298
2019-06-18T08:28:14.445Z,340
2019-06-18T08:29:14.412Z,997
2019-06-18T08:30:25.948Z,747
2019-06-18T08:31:14.338Z,1002
2019-06-18T08:32:14.356Z,506
2019-06-18T08:33:14.386Z,993
2019-06-18T08:34:14.314Z,989
2019-06-18T08:35:14.417Z,928
2019-06-18T08:36:14.421Z,950
2019-06-18T08:37:14.302Z,917
2019-06-18T08:38:14.421Z,907
2019-06-18T08:39:14.419Z,904
2019-06-18T08:40:14.381Z,906
2019-06-18T08:41:14.421Z,898
2019-06-18T08:42:14.327Z,906
2019-06-18T08:43:14.394Z,913
2019-06-18T08:44:14.361Z,909
2019-06-18T08:45:14.364Z,902
2019-06-18T08:46:14.355Z,911
2019-06-18T08:47:14.423Z,914
2019-06-18T08:48:14.309Z,911
2019-06-18T08:49:14.299Z,897
2019-06-18T08:50:14.392Z,895
2019-06-18T08:51:14.357Z,903
2019-06-18T08:52:14.357Z,900
2019-06-18T08:53:14.331Z,900
2019-06-18T08:54:14.425Z,901
2019-06-18T08:55:14.336Z,896
2019-06-18T08:56:14.856Z,898
2019-06-18T08:57:14.331Z,898
2019-06-18T08:58:14.371Z,898
2019-06-18T08:59:14.396Z,897
2019-06-18T09:00:14.306Z,888
2019-06-18T09:01:14.312Z,898
2019-06-18T09:02:14.374Z,902
2019-06-18T09:03:25.721Z,905
2019-06-18T09:04:14.398Z,909
2019-06-18T09:05:14.361Z,911
2019-06-18T09:06:14.349Z,910
2019-06-18T09:07:14.447Z,903
2019-06-18T09:08:14.455Z,915
2019-06-18T09:09:14.477Z,918
2019-06-18T09:10:14.400Z,920
2019-06-18T09:11:14.453Z,924
2019-06-18T09:12:14.455Z,925
2019-06-18T09:13:14.383Z,924
2019-06-18T09:14:14.394Z,920
2019-06-18T09:15:14.400Z,928
2019-06-18T09:16:14.400Z,928
2019-06-18T09:17:14.458Z,932
2019-06-18T09:18:17.251Z,933
2019-06-18T09:19:14.458Z,934
2019-06-18T09:20:14.413Z,932
2019-06-18T09:21:14.461Z,943
2019-06-18T09:22:14.404Z,945
2019-06-18T09:23:14.462Z,944
2019-06-18T09:24:14.476Z,940
2019-06-18T09:25:14.480Z,943
2019-06-18T09:26:14.397Z,944
2019-06-18T09:27:14.462Z,944
2019-06-18T09:28:14.397Z,946
2019-06-18T09:29:14.419Z,946
2019-06-18T09:30:14.480Z,943
2019-06-18T09:31:14.402Z,939
2019-06-18T09:32:14.479Z,946
2019-06-18T09:33:14.471Z,952
2019-06-18T09:34:14.470Z,956
2019-06-18T09:35:14.479Z,959
2019-06-18T09:36:14.399Z,956
2019-06-18T09:37:14.471Z,958
2019-06-18T09:38:14.469Z,961
2019-06-18T09:39:14.423Z,961
2019-06-18T09:40:14.406Z,955
2019-06-18T09:41:14.401Z,960
2019-06-18T09:42:14.478Z,955
2019-06-18T09:43:14.406Z,954
2019-06-18T09:44:14.808Z,958
2019-06-18T09:45:14.569Z,967
2019-06-18T09:46:14.413Z,964
2019-06-18T09:47:14.358Z,963
2019-06-18T09:48:14.358Z,960
2019-06-18T09:49:14.430Z,956
2019-06-18T09:50:14.422Z,962
2019-06-18T09:51:22.954Z,977
2019-06-18T09:52:14.382Z,970
2019-06-18T09:53:17.311Z,963
2019-06-18T09:54:14.341Z,957
2019-06-18T09:55:14.403Z,953
2019-06-18T09:56:14.401Z,966
2019-06-18T09:57:14.472Z,978
2019-06-18T09:58:14.404Z,984
2019-06-18T09:59:14.434Z,984
2019-06-18T10:00:14.433Z,985
2019-06-18T10:01:14.437Z,980
2019-06-18T10:02:14.388Z,974
2019-06-18T10:03:14.405Z,994
2019-06-18T10:04:14.377Z,997
2019-06-18T10:05:14.410Z,997
2019-06-18T10:06:14.318Z,990
2019-06-18T10:07:14.439Z,978
2019-06-18T10:08:14.486Z,986
2019-06-18T10:10:14.431Z,1000
2019-06-18T10:11:14.428Z,998
2019-06-18T10:12:14.430Z,1006
2019-06-18T10:13:14.417Z,1005
2019-06-18T10:14:14.487Z,1004
2019-06-18T10:15:14.424Z,1012
2019-06-18T10:16:14.492Z,1006
2019-06-18T10:17:14.489Z,1009
2019-06-18T10:18:14.437Z,1013
2019-06-18T10:19:14.692Z,1013
2019-06-18T10:20:14.434Z,1016
2019-06-18T10:21:14.530Z,1020
2019-06-18T10:22:14.438Z,1023
2019-06-18T10:23:14.510Z,1024
2019-06-18T10:24:14.509Z,1022
2019-06-18T10:25:14.530Z,1022
2019-06-18T10:26:14.507Z,1024
2019-06-18T10:27:14.439Z,1025
2019-06-18T10:28:14.381Z,1023
2019-06-18T10:29:28.961Z,1021
2019-06-18T10:30:14.398Z,1024
2019-06-18T10:31:14.486Z,1024
2019-06-18T10:32:14.385Z,1027
2019-06-18T10:33:14.428Z,1034
2019-06-18T10:34:14.500Z,1034
2019-06-18T10:35:14.493Z,1032
2019-06-18T10:36:14.505Z,1032
2019-06-18T10:37:14.501Z,1034
2019-06-18T10:38:14.395Z,1038
2019-06-18T10:39:14.471Z,1043
2019-06-18T10:40:14.407Z,1048
2019-06-18T10:41:18.330Z,1046
2019-06-18T10:42:14.341Z,1042
2019-06-18T10:43:14.435Z,1041
2019-06-18T10:44:14.384Z,1029
2019-06-18T10:45:14.468Z,1028
2019-06-18T10:46:14.465Z,1021
2019-06-18T10:47:14.470Z,1016
2019-06-18T10:48:14.533Z,1023
2019-06-18T10:49:18.405Z,1014
2019-06-18T10:50:14.524Z,1030
2019-06-18T10:51:14.468Z,1037
2019-06-18T10:52:14.459Z,1043
2019-06-18T10:53:14.464Z,1019
2019-06-18T10:54:14.535Z,1032
2019-06-18T10:55:14.463Z,1030
2019-06-18T10:56:14.466Z,1031
2019-06-18T10:57:14.530Z,1039
2019-06-18T10:58:14.483Z,1048
2019-06-18T10:59:14.482Z,1022
2019-06-18T11:00:14.461Z,1010
2019-06-18T11:01:14.485Z,1003
2019-06-18T11:02:14.454Z,964
2019-06-18T11:03:14.482Z,972
2019-06-18T11:04:14.517Z,971
2019-06-18T11:05:14.438Z,956
2019-06-18T11:06:14.401Z,985
2019-06-18T11:07:14.485Z,979
2019-06-18T11:08:14.549Z,1029
2019-06-18T11:09:14.542Z,1047
2019-06-18T11:10:14.550Z,1069
2019-06-18T11:11:14.545Z,1064
2019-06-18T11:12:14.495Z,1055
2019-06-18T11:13:14.474Z,1067
2019-06-18T11:14:15.961Z,1055
2019-06-18T11:15:14.570Z,1062
2019-06-18T11:16:14.545Z,1057
2019-06-18T11:17:14.545Z,1063
2019-06-18T11:18:14.481Z,1070
2019-06-18T11:19:14.545Z,1047
2019-06-18T11:20:14.481Z,1048
2019-06-18T11:21:14.546Z,1033
2019-06-18T11:22:14.847Z,1061
2019-06-18T11:23:30.220Z,1064
2019-06-18T11:24:14.593Z,1030
2019-06-18T11:25:17.269Z,1026
2019-06-18T11:26:14.561Z,1046
2019-06-18T11:27:14.555Z,1051
2019-06-18T11:28:14.488Z,1051
2019-06-18T11:29:14.555Z,1048
2019-06-18T11:30:14.555Z,1056
2019-06-18T11:31:14.559Z,1064
2019-06-18T11:32:14.500Z,1028
2019-06-18T11:33:14.578Z,1013
2019-06-18T11:34:14.498Z,1019
2019-06-18T11:35:14.562Z,1004
2019-06-18T11:36:14.563Z,991
2019-06-18T11:37:14.566Z,982
2019-06-18T11:38:14.501Z,992
2019-06-18T11:39:14.508Z,978
2019-06-18T11:40:14.514Z,982
2019-06-18T11:41:14.568Z,1002
2019-06-18T11:42:14.496Z,1009
2019-06-18T11:43:14.578Z,1061
2019-06-18T11:44:14.566Z,1091
2019-06-18T11:45:14.578Z,1088
2019-06-18T11:46:14.567Z,1096
2019-06-18T11:47:14.503Z,1035
2019-06-18T11:48:14.560Z,1002
2019-06-18T11:49:14.493Z,1050
2019-06-18T11:50:14.563Z,1082
2019-06-18T11:51:14.495Z,1083
2019-06-18T11:52:28.932Z,1011
2019-06-18T11:53:14.565Z,950
2019-06-18T11:54:14.560Z,863
2019-06-18T11:55:14.574Z,965
2019-06-18T11:56:14.592Z,1027
2019-06-18T11:57:14.568Z,1038
2019-06-18T11:58:14.492Z,1023
2019-06-18T11:59:14.437Z,1008
2019-06-18T12:00:14.465Z,1038
2019-06-18T12:01:14.537Z,1047
2019-06-18T12:02:14.448Z,1031
2019-06-18T12:03:14.579Z,1062
2019-06-18T12:04:14.467Z,1078
2019-06-18T12:05:14.440Z,1077
2019-06-18T12:06:14.525Z,1059
2019-06-18T12:07:14.498Z,991
2019-06-18T12:08:14.582Z,1043
2019-06-18T12:09:14.589Z,1028
2019-06-18T12:10:14.584Z,1027
2019-06-18T12:11:14.586Z,1020
2019-06-18T12:12:14.519Z,1005
2019-06-18T12:13:14.520Z,988
2019-06-18T12:14:14.589Z,1003
2019-06-18T12:15:14.591Z,1017
2019-06-18T12:16:14.523Z,1006
2019-06-18T12:17:14.591Z,1027
2019-06-18T12:18:14.465Z,1014
2019-06-18T12:19:14.572Z,1008
2019-06-18T12:20:14.582Z,1006
2019-06-18T12:21:14.582Z,1003
2019-06-18T12:22:14.574Z,990
2019-06-18T12:23:16.691Z,1021
2019-06-18T12:24:14.497Z,1038
2019-06-18T12:25:14.456Z,1050
2019-06-18T12:26:14.787Z,1047
2019-06-18T12:27:14.551Z,1054
2019-06-18T12:28:14.516Z,1043
2019-06-18T12:29:14.586Z,1067
2019-06-18T12:30:14.595Z,1054
2019-06-18T12:31:14.470Z,1069
2019-06-18T12:32:14.564Z,634
2019-06-18T12:33:14.508Z,258
2019-06-18T12:34:14.565Z,997
2019-06-18T12:35:14.541Z,206
2019-06-18T12:36:14.507Z,210
2019-06-18T12:37:14.554Z,214
2019-06-18T12:39:14.543Z,262
2019-06-18T12:40:14.569Z,314
2019-06-18T12:41:14.616Z,388
2019-06-18T12:42:14.614Z,1150
2019-06-18T12:43:14.555Z,1084
2019-06-18T12:44:14.556Z,826
2019-06-18T12:45:14.649Z,777
2019-06-18T12:46:14.619Z,672
2019-06-18T12:47:14.561Z,854
2019-06-18T12:48:14.619Z,853
2019-06-18T12:49:14.622Z,899
2019-06-18T12:50:14.548Z,1052
2019-06-18T12:51:14.617Z,1144
2019-06-18T12:52:14.552Z,1088
2019-06-18T12:53:14.619Z,926
2019-06-18T12:54:14.618Z,876
2019-06-18T12:55:14.626Z,874
2019-06-18T12:56:14.639Z,947
2019-06-18T12:57:14.623Z,1032
2019-06-18T12:58:14.611Z,986
2019-06-18T12:59:26.672Z,1055
2019-06-18T13:00:14.594Z,1049
2019-06-18T13:01:14.532Z,1064
2019-06-18T13:02:14.606Z,1060
2019-06-18T13:03:14.560Z,1003
2019-06-18T13:04:14.521Z,889
2019-06-18T13:05:14.565Z,639
2019-06-18T13:06:14.559Z,736
2019-06-18T13:07:14.502Z,988
2019-06-18T13:08:14.649Z,1063
2019-06-18T13:09:14.639Z,937
2019-06-18T13:10:14.562Z,911
2019-06-18T13:11:14.584Z,796
2019-06-18T13:12:14.632Z,793
2019-06-18T13:13:14.650Z,968
2019-06-18T13:14:14.565Z,945
2019-06-18T13:15:15.611Z,791
2019-06-18T13:16:14.639Z,550
2019-06-18T13:17:14.642Z,736
2019-06-18T13:18:14.562Z,1017
2019-06-18T13:19:14.670Z,1052
2019-06-18T13:20:14.526Z,1017
2019-06-18T13:21:14.545Z,1027
2019-06-18T13:22:14.560Z,1042
2019-06-18T13:23:25.849Z,1039
2019-06-18T13:24:14.639Z,1020
2019-06-18T13:25:14.574Z,1004
2019-06-18T13:26:14.630Z,1027
2019-06-18T13:27:14.586Z,1009
2019-06-18T13:28:14.581Z,1000
2019-06-18T13:29:14.647Z,971
2019-06-18T13:30:14.587Z,971
2019-06-18T13:31:14.603Z,951
2019-06-18T13:32:14.578Z,943
2019-06-18T13:33:14.598Z,970
2019-06-18T13:34:14.649Z,915
2019-06-18T13:35:16.688Z,886
2019-06-18T13:36:14.649Z,826
2019-06-18T13:37:14.594Z,845
2019-06-18T13:38:14.586Z,724
2019-06-18T13:39:14.572Z,832
2019-06-18T13:40:14.531Z,784
2019-06-18T13:41:14.601Z,797
2019-06-18T13:42:14.537Z,749
2019-06-18T13:43:14.558Z,756
2019-06-18T13:44:14.576Z,701
2019-06-18T13:45:14.604Z,714
2019-06-18T13:46:14.630Z,686
2019-06-18T13:47:14.561Z,751
2019-06-18T13:48:16.101Z,736
2019-06-18T13:49:14.662Z,646
2019-06-18T13:50:14.674Z,637
2019-06-18T13:51:14.603Z,562
2019-06-18T13:52:14.705Z,539
2019-06-18T13:53:14.669Z,491
2019-06-18T13:54:15.623Z,602
2019-06-18T13:55:14.675Z,747
2019-06-18T13:56:14.610Z,766
2019-06-18T13:57:14.666Z,697
2019-06-18T13:58:14.657Z,593
2019-06-18T13:59:14.658Z,718
2019-06-18T14:00:14.585Z,884